sensor_id;sensor_type;location;lat;lon;timestamp;pressure;altitude;pressure_sealevel;temperature;humidity
47104;BME280;32853;52.164;5.400;2023-10-13T00:01:47;101033.97;;;19.77;100.00
47104;BME280;32853;52.164;5.400;2023-10-13T00:07:51;101032.75;;;19.81;100.00
47104;BME280;32853;52.164;5.400;2023-10-13T00:14:46;100791.00;;;18.21;100.00
47104;BME280;32853;52.164;5.400;2023-10-13T00:17:25;100722.47;;;17.93;100.00
47104;BME280;32853;52.164;5.400;2023-10-13T00:19:58;100861.53;;;18.83;100.00
47104;BME280;32853;52.164;5.400;2023-10-13T00:23:09;101009.09;;;19.78;100.00
47104;BME280;32853;52.164;5.400;2023-10-13T00:26:14;100751.94;;;18.12;100.00
47104;BME280;32853;52.164;5.400;2023-10-13T00:29:18;100761.06;;;18.08;100.00
47104;BME280;32853;52.164;5.400;2023-10-13T00:31:59;100752.38;;;18.06;100.00
47104;BME280;32853;52.164;5.400;2023-10-13T00:38:04;100803.56;;;18.54;100.00
47104;BME280;32853;52.164;5.400;2023-10-13T00:41:05;100994.41;;;19.74;100.00
47104;BME280;32853;52.164;5.400;2023-10-13T00:47:32;100930.03;;;19.24;100.00
47104;BME280;32853;52.164;5.400;2023-10-13T01:21:09;100675.03;;;18.03;100.00
47104;BME280;32853;52.164;5.400;2023-10-13T01:27:36;100934.53;;;19.70;100.00
47104;BME280;32853;52.164;5.400;2023-10-13T01:30:16;100666.78;;;17.94;100.00
47104;BME280;32853;52.164;5.400;2023-10-13T01:36:11;100932.84;;;19.69;100.00
47104;BME280;32853;52.164;5.400;2023-10-13T01:38:40;100931.41;;;19.65;100.00
47104;BME280;32853;52.164;5.400;2023-10-13T01:41:23;100760.31;;;18.67;100.00
47104;BME280;32853;52.164;5.400;2023-10-13T01:44:42;100917.88;;;19.57;100.00
47104;BME280;32853;52.164;5.400;2023-10-13T01:47:43;100914.41;;;19.79;100.00
47104;BME280;32853;52.164;5.400;2023-10-13T01:50:24;100643.09;;;17.93;100.00
47104;BME280;32853;52.164;5.400;2023-10-13T01:52:58;100642.22;;;18.16;100.00
47104;BME280;32853;52.164;5.400;2023-10-13T01:55:53;100905.06;;;19.62;100.00
47104;BME280;32853;52.164;5.400;2023-10-13T02:01:24;100898.63;;;19.77;100.00
47104;BME280;32853;52.164;5.400;2023-10-13T02:04:24;100780.09;;;18.74;100.00
47104;BME280;32853;52.164;5.400;2023-10-13T02:07:08;100624.88;;;18.01;100.00
47104;BME280;32853;52.164;5.400;2023-10-13T02:09:40;100639.72;;;17.91;100.00
47104;BME280;32853;52.164;5.400;2023-10-13T02:12:34;100721.31;;;18.45;100.00
47104;BME280;32853;52.164;5.400;2023-10-13T02:15:10;100631.34;;;17.97;100.00
47104;BME280;32853;52.164;5.400;2023-10-13T02:20:39;100815.75;;;19.27;100.00
47104;BME280;32853;52.164;5.400;2023-10-13T02:23:25;100624.09;;;17.88;100.00
47104;BME280;32853;52.164;5.400;2023-10-13T02:29:52;100608.50;;;17.96;100.00
47104;BME280;32853;52.164;5.400;2023-10-13T02:33:02;100896.53;;;19.69;100.00
47104;BME280;32853;52.164;5.400;2023-10-13T02:36:04;100865.19;;;19.63;100.00
47104;BME280;32853;52.164;5.400;2023-10-13T02:39:12;100863.97;;;19.56;100.00
47104;BME280;32853;52.164;5.400;2023-10-13T02:42:14;100596.19;;;17.95;100.00
47104;BME280;32853;52.164;5.400;2023-10-13T02:45:28;100577.16;;;17.79;100.00
47104;BME280;32853;52.164;5.400;2023-10-13T03:52:02;100411.69;;;17.75;100.00
47104;BME280;32853;52.164;5.400;2023-10-13T03:54:49;100415.72;;;17.67;100.00
47104;BME280;32853;52.164;5.400;2023-10-13T03:57:25;100381.84;;;17.73;100.00
47104;BME280;32853;52.164;5.400;2023-10-13T04:02:57;100498.75;;;18.46;100.00
47104;BME280;32853;52.164;5.400;2023-10-13T04:05:49;100373.09;;;17.72;100.00
47104;BME280;32853;52.164;5.400;2023-10-13T04:08:55;100393.28;;;17.84;100.00
47104;BME280;32853;52.164;5.400;2023-10-13T04:11:46;100388.44;;;17.67;100.00
47104;BME280;32853;52.164;5.400;2023-10-13T04:15:20;100414.13;;;18.00;100.00
47104;BME280;32853;52.164;5.400;2023-10-13T04:17:56;100460.38;;;18.29;100.00
47104;BME280;32853;52.164;5.400;2023-10-13T04:20:36;100628.13;;;19.20;100.00
47104;BME280;32853;52.164;5.400;2023-10-13T04:23:17;100341.66;;;17.56;100.00
47104;BME280;32853;52.164;5.400;2023-10-13T04:25:54;100521.53;;;18.71;100.00
47104;BME280;32853;52.164;5.400;2023-10-13T04:28:43;100367.78;;;17.72;100.00
47104;BME280;32853;52.164;5.400;2023-10-13T04:31:18;100452.28;;;18.31;100.00
47104;BME280;32853;52.164;5.400;2023-10-13T04:34:08;100594.94;;;19.36;100.00
47104;BME280;32853;52.164;5.400;2023-10-13T04:36:44;100590.38;;;19.27;100.00
47104;BME280;32853;52.164;5.400;2023-10-13T04:39:20;100487.06;;;18.82;100.00
47104;BME280;32853;52.164;5.400;2023-10-13T04:41:54;100590.84;;;19.43;100.00
47104;BME280;32853;52.164;5.400;2023-10-13T04:44:20;100601.34;;;19.34;100.00
47104;BME280;32853;52.164;5.400;2023-10-13T04:46:56;100302.63;;;17.71;100.00
47104;BME280;32853;52.164;5.400;2023-10-13T04:49:30;100306.81;;;17.62;100.00
47104;BME280;32853;52.164;5.400;2023-10-13T04:52:08;100529.72;;;18.91;100.00
47104;BME280;32853;52.164;5.400;2023-10-13T04:54:45;100549.81;;;19.04;100.00
47104;BME280;32853;52.164;5.400;2023-10-13T04:57:22;100572.19;;;19.23;100.00
47104;BME280;32853;52.164;5.400;2023-10-13T04:59:51;100448.69;;;18.66;100.00
47104;BME280;32853;52.164;5.400;2023-10-13T05:02:38;100540.72;;;19.40;100.00
47104;BME280;32853;52.164;5.400;2023-10-13T05:05:16;100544.44;;;19.38;100.00
47104;BME280;32853;52.164;5.400;2023-10-13T05:07:55;100364.09;;;18.31;100.00
47104;BME280;32853;52.164;5.400;2023-10-13T05:10:40;100477.19;;;19.07;100.00
47104;BME280;32853;52.164;5.400;2023-10-13T05:13:25;100538.53;;;19.45;100.00
47104;BME280;32853;52.164;5.400;2023-10-13T05:16:15;100525.97;;;19.48;100.00
47104;BME280;32853;52.164;5.400;2023-10-13T05:18:59;100463.19;;;19.05;100.00
47104;BME280;32853;52.164;5.400;2023-10-13T05:21:42;100522.22;;;19.50;100.00
47104;BME280;32853;52.164;5.400;2023-10-13T05:24:27;100247.94;;;17.71;100.00
47104;BME280;32853;52.164;5.400;2023-10-13T05:27:14;100528.50;;;19.60;100.00
47104;BME280;32853;52.164;5.400;2023-10-13T05:30:02;100486.34;;;19.35;100.00
47104;BME280;32853;52.164;5.400;2023-10-13T05:32:46;100433.06;;;19.06;100.00
47104;BME280;32853;52.164;5.400;2023-10-13T05:35:31;100527.03;;;19.67;100.00
47104;BME280;32853;52.164;5.400;2023-10-13T05:38:15;100395.56;;;18.78;100.00
47104;BME280;32853;52.164;5.400;2023-10-13T05:41:06;100494.41;;;19.44;100.00
47104;BME280;32853;52.164;5.400;2023-10-13T05:43:55;100461.44;;;19.26;100.00
47104;BME280;32853;52.164;5.400;2023-10-13T05:46:46;100260.81;;;17.98;100.00
47104;BME280;32853;52.164;5.400;2023-10-13T05:49:17;100506.56;;;19.58;100.00
47104;BME280;32853;52.164;5.400;2023-10-13T05:51:43;100496.66;;;19.60;100.00
47104;BME280;32853;52.164;5.400;2023-10-13T05:54:15;100519.06;;;19.67;100.00
47104;BME280;32853;52.164;5.400;2023-10-13T05:56:48;100247.78;;;17.95;100.00
47104;BME280;32853;52.164;5.400;2023-10-13T05:59:37;100487.81;;;19.71;100.00
47104;BME280;32853;52.164;5.400;2023-10-13T06:02:22;100408.72;;;19.12;100.00
47104;BME280;32853;52.164;5.400;2023-10-13T06:05:11;100487.22;;;19.67;100.00
47104;BME280;32853;52.164;5.400;2023-10-13T06:07:56;100491.81;;;19.65;100.00
47104;BME280;32853;52.164;5.400;2023-10-13T06:10:47;100498.94;;;19.65;100.00
47104;BME280;32853;52.164;5.400;2023-10-13T06:13:32;100327.69;;;18.66;100.00
47104;BME280;32853;52.164;5.400;2023-10-13T06:16:36;100479.47;;;19.76;100.00
47104;BME280;32853;52.164;5.400;2023-10-13T06:19:20;100475.44;;;19.81;100.00
47104;BME280;32853;52.164;5.400;2023-10-13T06:22:03;100208.63;;;18.33;100.00
47104;BME280;32853;52.164;5.400;2023-10-13T06:24:58;100290.53;;;18.89;100.00
47104;BME280;32853;52.164;5.400;2023-10-13T06:27:42;100438.50;;;19.68;100.00
47104;BME280;32853;52.164;5.400;2023-10-13T06:30:26;100175.88;;;18.02;100.00
47104;BME280;32853;52.164;5.400;2023-10-13T06:32:52;100270.59;;;18.73;100.00
47104;BME280;32853;52.164;5.400;2023-10-13T06:35:27;100293.63;;;18.94;100.00
47104;BME280;32853;52.164;5.400;2023-10-13T06:37:54;100343.56;;;19.30;100.00
47104;BME280;32853;52.164;5.400;2023-10-13T06:40:29;100419.47;;;19.63;100.00
47104;BME280;32853;52.164;5.400;2023-10-13T06:43:12;100182.16;;;18.33;100.00
47104;BME280;32853;52.164;5.400;2023-10-13T06:45:45;100449.31;;;19.97;100.00
47104;BME280;32853;52.164;5.400;2023-10-13T06:48:45;100449.03;;;20.00;100.00
47104;BME280;32853;52.164;5.400;2023-10-13T06:51:11;100341.16;;;19.27;100.00
47104;BME280;32853;52.164;5.400;2023-10-13T06:53:45;100186.97;;;18.27;100.00
47104;BME280;32853;52.164;5.400;2023-10-13T06:56:15;100455.41;;;19.88;100.00
47104;BME280;32853;52.164;5.400;2023-10-13T06:58:50;100272.19;;;18.97;100.00
47104;BME280;32853;52.164;5.400;2023-10-13T07:01:31;100431.88;;;19.84;100.00
47104;BME280;32853;52.164;5.400;2023-10-13T07:04:29;100421.47;;;19.92;100.00
47104;BME280;32853;52.164;5.400;2023-10-13T07:07:00;100383.94;;;19.55;100.00
47104;BME280;32853;52.164;5.400;2023-10-13T07:09:35;100423.19;;;20.02;100.00
47104;BME280;32853;52.164;5.400;2023-10-13T07:12:02;100135.84;;;18.27;100.00
47104;BME280;32853;52.164;5.400;2023-10-13T07:14:32;100330.81;;;19.45;100.00
47104;BME280;32853;52.164;5.400;2023-10-13T07:17:07;100413.06;;;19.87;100.00
47104;BME280;32853;52.164;5.400;2023-10-13T07:19:36;100388.81;;;20.01;100.00
47104;BME280;32853;52.164;5.400;2023-10-13T07:22:18;100381.03;;;20.09;100.00
47104;BME280;32853;52.164;5.400;2023-10-13T07:24:47;100100.78;;;18.35;100.00
47104;BME280;32853;52.164;5.400;2023-10-13T07:27:24;100380.28;;;19.97;100.00
47104;BME280;32853;52.164;5.400;2023-10-13T07:29:57;100377.00;;;20.15;100.00
47104;BME280;32853;52.164;5.400;2023-10-13T07:32:54;100375.72;;;20.09;100.00
47104;BME280;32853;52.164;5.400;2023-10-13T07:35:26;100375.38;;;20.23;100.00
47104;BME280;32853;52.164;5.400;2023-10-13T07:37:58;100078.84;;;18.23;100.00
47104;BME280;32853;52.164;5.400;2023-10-13T07:40:28;100087.69;;;18.54;100.00
47104;BME280;32853;52.164;5.400;2023-10-13T07:43:01;100105.81;;;18.58;100.00
47104;BME280;32853;52.164;5.400;2023-10-13T07:45:28;100339.09;;;20.03;100.00
47104;BME280;32853;52.164;5.400;2023-10-13T07:48:08;100231.56;;;19.17;100.00
47104;BME280;32853;52.164;5.400;2023-10-13T07:51:03;100118.66;;;18.74;100.00
47104;BME280;32853;52.164;5.400;2023-10-13T07:53:32;100268.09;;;19.86;100.00
47104;BME280;32853;52.164;5.400;2023-10-13T07:56:09;100372.56;;;20.25;100.00
47104;BME280;32853;52.164;5.400;2023-10-13T07:58:37;100211.19;;;19.17;100.00
47104;BME280;32853;52.164;5.400;2023-10-13T08:01:19;100292.38;;;19.60;100.00
47104;BME280;32853;52.164;5.400;2023-10-13T08:03:45;100278.06;;;19.72;100.00
47104;BME280;32853;52.164;5.400;2023-10-13T08:06:17;100245.75;;;19.58;100.00
47104;BME280;32853;52.164;5.400;2023-10-13T08:08:54;100116.44;;;18.79;100.00
47104;BME280;32853;52.164;5.400;2023-10-13T08:11:30;100308.88;;;19.85;100.00
47104;BME280;32853;52.164;5.400;2023-10-13T08:14:08;100254.94;;;19.94;100.00
47104;BME280;32853;52.164;5.400;2023-10-13T08:16:40;100253.28;;;19.93;100.00
47104;BME280;32853;52.164;5.400;2023-10-13T08:19:25;100355.22;;;20.61;100.00
47104;BME280;32853;52.164;5.400;2023-10-13T08:21:59;100346.97;;;20.54;100.00
47104;BME280;32853;52.164;5.400;2023-10-13T08:24:28;100198.72;;;19.60;100.00
47104;BME280;32853;52.164;5.400;2023-10-13T08:27:03;100234.56;;;19.85;100.00
47104;BME280;32853;52.164;5.400;2023-10-13T08:29:44;100360.13;;;20.66;100.00
47104;BME280;32853;52.164;5.400;2023-10-13T08:32:33;100339.97;;;20.73;100.00
47104;BME280;32853;52.164;5.400;2023-10-13T08:34:59;100100.59;;;19.20;100.00
47104;BME280;32853;52.164;5.400;2023-10-13T08:37:34;100335.25;;;20.76;100.00
47104;BME280;32853;52.164;5.400;2023-10-13T08:40:37;100316.78;;;20.65;100.00
47104;BME280;32853;52.164;5.400;2023-10-13T08:43:23;100319.31;;;20.76;100.00
47104;BME280;32853;52.164;5.400;2023-10-13T08:45:54;100057.75;;;19.24;100.00
47104;BME280;32853;52.164;5.400;2023-10-13T08:48:33;100054.69;;;19.19;100.00
47104;BME280;32853;52.164;5.400;2023-10-13T08:50:59;100201.50;;;20.27;100.00
47104;BME280;32853;52.164;5.400;2023-10-13T08:53:36;100312.03;;;21.07;100.00
47104;BME280;32853;52.164;5.400;2023-10-13T08:56:16;100052.16;;;19.27;100.00
47104;BME280;32853;52.164;5.400;2023-10-13T08:58:44;100350.63;;;20.92;100.00
47104;BME280;32853;52.164;5.400;2023-10-13T09:01:24;100227.41;;;20.54;100.00
47104;BME280;32853;52.164;5.400;2023-10-13T09:04:18;100089.06;;;19.50;100.00
47104;BME280;32853;52.164;5.400;2023-10-13T09:06:58;100298.16;;;21.13;100.00
47104;BME280;32853;52.164;5.400;2023-10-13T09:12:27;100312.97;;;21.16;100.00
47104;BME280;32853;52.164;5.400;2023-10-13T09:15:09;100305.97;;;21.25;100.00
47104;BME280;32853;52.164;5.400;2023-10-13T09:17:49;100276.34;;;21.10;100.00
47104;BME280;32853;52.164;5.400;2023-10-13T09:20:31;100168.97;;;20.54;100.00
47104;BME280;32853;52.164;5.400;2023-10-13T09:23:15;100031.44;;;19.52;100.00
47104;BME280;32853;52.164;5.400;2023-10-13T09:25:49;100037.56;;;19.33;100.00
47104;BME280;32853;52.164;5.400;2023-10-13T09:28:41;100239.13;;;20.91;100.00
47104;BME280;32853;52.164;5.400;2023-10-13T09:31:06;100214.25;;;20.72;100.00
47104;BME280;32853;52.164;5.400;2023-10-13T09:33:35;100198.59;;;20.59;100.00
47104;BME280;32853;52.164;5.400;2023-10-13T09:36:05;100289.19;;;21.14;100.00
47104;BME280;32853;52.164;5.400;2023-10-13T09:38:36;100193.28;;;20.69;100.00
47104;BME280;32853;52.164;5.400;2023-10-13T09:41:06;100106.88;;;20.26;100.00
47104;BME280;32853;52.164;5.400;2023-10-13T09:43:46;100286.16;;;21.29;100.00
47104;BME280;32853;52.164;5.400;2023-10-13T09:46:18;100259.66;;;21.27;100.00
47104;BME280;32853;52.164;5.400;2023-10-13T09:48:45;100133.19;;;20.49;100.00
47104;BME280;32853;52.164;5.400;2023-10-13T09:51:29;100250.28;;;21.33;100.00
47104;BME280;32853;52.164;5.400;2023-10-13T09:54:03;100000.75;;;19.97;100.00
47104;BME280;32853;52.164;5.400;2023-10-13T09:56:42;100013.19;;;19.97;100.00
47104;BME280;32853;52.164;5.400;2023-10-13T09:59:21;100237.47;;;21.56;100.00
47104;BME280;32853;52.164;5.400;2023-10-13T10:01:48;99983.84;;;19.89;100.00
47104;BME280;32853;52.164;5.400;2023-10-13T10:04:18;100212.88;;;21.44;100.00
47104;BME280;32853;52.164;5.400;2023-10-13T10:06:58;100111.84;;;20.87;100.00
47104;BME280;32853;52.164;5.400;2023-10-13T10:09:29;100191.59;;;21.44;100.00
47104;BME280;32853;52.164;5.400;2023-10-13T10:15:09;100173.97;;;21.24;100.00
47104;BME280;32853;52.164;5.400;2023-10-13T10:17:45;100220.22;;;21.60;100.00
47104;BME280;32853;52.164;5.400;2023-10-13T10:20:12;100192.91;;;21.30;100.00
47104;BME280;32853;52.164;5.400;2023-10-13T10:22:58;100226.78;;;21.65;100.00
47104;BME280;32853;52.164;5.400;2023-10-13T10:25:32;100121.16;;;21.01;100.00
47104;BME280;32853;52.164;5.400;2023-10-13T10:28:02;100173.69;;;21.36;100.00
47104;BME280;32853;52.164;5.400;2023-10-13T10:30:32;99960.28;;;20.33;100.00
47104;BME280;32853;52.164;5.400;2023-10-13T10:33:04;99975.34;;;20.51;100.00
47104;BME280;32853;52.164;5.400;2023-10-13T10:35:38;100104.53;;;21.36;100.00
47104;BME280;32853;52.164;5.400;2023-10-13T10:38:22;100204.47;;;21.76;100.00
47104;BME280;32853;52.164;5.400;2023-10-13T10:40:58;100174.03;;;21.79;100.00
47104;BME280;32853;52.164;5.400;2023-10-13T10:43:28;100201.03;;;22.11;100.00
47104;BME280;32853;52.164;5.400;2023-10-13T10:46:14;100027.34;;;21.18;100.00
47104;BME280;32853;52.164;5.400;2023-10-13T10:48:41;100116.25;;;21.43;100.00
47104;BME280;32853;52.164;5.400;2023-10-13T10:51:12;100194.03;;;22.10;100.00
47104;BME280;32853;52.164;5.400;2023-10-13T10:53:48;100164.75;;;22.10;100.00
47104;BME280;32853;52.164;5.400;2023-10-13T10:56:24;100074.41;;;21.63;100.00
47104;BME280;32853;52.164;5.400;2023-10-13T10:59:00;100180.63;;;22.38;100.00
47104;BME280;32853;52.164;5.400;2023-10-13T11:01:27;100179.28;;;22.33;100.00
47104;BME280;32853;52.164;5.400;2023-10-13T11:04:20;100136.84;;;22.04;100.00
47104;BME280;32853;52.164;5.400;2023-10-13T11:06:57;100163.06;;;22.45;100.00
47104;BME280;32853;52.164;5.400;2023-10-13T11:09:28;99953.25;;;21.24;100.00
47104;BME280;32853;52.164;5.400;2023-10-13T11:14:31;100060.72;;;21.76;100.00
47104;BME280;32853;52.164;5.400;2023-10-13T11:16:57;100063.88;;;22.07;100.00
47104;BME280;32853;52.164;5.400;2023-10-13T11:19:48;100150.00;;;22.59;100.00
47104;BME280;32853;52.164;5.400;2023-10-13T11:22:49;100048.09;;;22.14;100.00
47104;BME280;32853;52.164;5.400;2023-10-13T11:26:08;100134.59;;;22.71;100.00
47104;BME280;32853;52.164;5.400;2023-10-13T11:28:37;100042.16;;;22.02;100.00
47104;BME280;32853;52.164;5.400;2023-10-13T11:31:03;100132.78;;;22.72;100.00
47104;BME280;32853;52.164;5.400;2023-10-13T11:33:44;100104.50;;;22.53;100.00
47104;BME280;32853;52.164;5.400;2023-10-13T11:36:12;99897.97;;;21.45;100.00
47104;BME280;32853;52.164;5.400;2023-10-13T11:38:50;99942.41;;;21.70;100.00
47104;BME280;32853;52.164;5.400;2023-10-13T11:41:23;100103.09;;;22.84;100.00
47104;BME280;32853;52.164;5.400;2023-10-13T11:43:50;99796.84;;;21.01;100.00
47104;BME280;32853;52.164;5.400;2023-10-13T11:46:16;99948.06;;;21.93;100.00
47104;BME280;32853;52.164;5.400;2023-10-13T11:49:03;100011.53;;;22.50;100.00
47104;BME280;32853;52.164;5.400;2023-10-13T11:51:38;100073.59;;;22.94;100.00
47104;BME280;32853;52.164;5.400;2023-10-13T11:54:05;99977.59;;;22.26;100.00
47104;BME280;32853;52.164;5.400;2023-10-13T11:56:30;100015.31;;;22.39;100.00
47104;BME280;32853;52.164;5.400;2023-10-13T11:58:55;100037.31;;;22.41;100.00
47104;BME280;32853;52.164;5.400;2023-10-13T12:01:47;100093.75;;;22.88;100.00
47104;BME280;32853;52.164;5.400;2023-10-13T12:04:35;100116.41;;;22.84;100.00
47104;BME280;32853;52.164;5.400;2023-10-13T12:07:17;99842.25;;;21.43;100.00
47104;BME280;32853;52.164;5.400;2023-10-13T12:09:46;99999.84;;;22.43;100.00
47104;BME280;32853;52.164;5.400;2023-10-13T12:12:24;100009.03;;;22.48;100.00
47104;BME280;32853;52.164;5.400;2023-10-13T12:14:50;100114.97;;;22.98;100.00
47104;BME280;32853;52.164;5.400;2023-10-13T12:17:26;99950.94;;;21.74;100.00
47104;BME280;32853;52.164;5.400;2023-10-13T12:20:06;100027.41;;;22.59;100.00
47104;BME280;32853;52.164;5.400;2023-10-13T12:22:46;99808.00;;;21.23;100.00
47104;BME280;32853;52.164;5.400;2023-10-13T12:25:20;100048.94;;;22.66;100.00
47104;BME280;32853;52.164;5.400;2023-10-13T12:27:57;100111.81;;;23.29;100.00
47104;BME280;32853;52.164;5.400;2023-10-13T12:30:31;99984.31;;;22.72;100.00
47104;BME280;32853;52.164;5.400;2023-10-13T12:33:18;100089.41;;;23.22;100.00
47104;BME280;32853;52.164;5.400;2023-10-13T12:38:40;100101.25;;;23.27;100.00
47104;BME280;32853;52.164;5.400;2023-10-13T12:41:15;99913.59;;;22.10;100.00
47104;BME280;32853;52.164;5.400;2023-10-13T12:44:06;100031.81;;;23.03;100.00
47104;BME280;32853;52.164;5.400;2023-10-13T12:46:54;100088.53;;;23.13;100.00
47104;BME280;32853;52.164;5.400;2023-10-13T12:49:38;100071.38;;;23.07;100.00
47104;BME280;32853;52.164;5.400;2023-10-13T12:52:15;100096.63;;;23.37;100.00
47104;BME280;32853;52.164;5.400;2023-10-13T12:54:57;100022.63;;;22.63;100.00
47104;BME280;32853;52.164;5.400;2023-10-13T12:57:32;99854.38;;;21.64;100.00
47104;BME280;32853;52.164;5.400;2023-10-13T13:00:02;99933.41;;;22.15;100.00
47104;BME280;32853;52.164;5.400;2023-10-13T13:02:41;100141.28;;;23.27;100.00
47104;BME280;32853;52.164;5.400;2023-10-13T13:05:07;100064.66;;;23.03;100.00
47104;BME280;32853;52.164;5.400;2023-10-13T13:07:40;99975.59;;;22.54;100.00
47104;BME280;32853;52.164;5.400;2023-10-13T13:10:18;100074.25;;;23.22;100.00
47104;BME280;32853;52.164;5.400;2023-10-13T13:12:44;100028.97;;;22.70;100.00
47104;BME280;32853;52.164;5.400;2023-10-13T13:15:10;100120.72;;;23.11;100.00
47104;BME280;32853;52.164;5.400;2023-10-13T13:17:38;100016.34;;;22.46;100.00
47104;BME280;32853;52.164;5.400;2023-10-13T13:20:08;100100.31;;;23.02;100.00
47104;BME280;32853;52.164;5.400;2023-10-13T13:22:40;99938.81;;;22.05;100.00
47104;BME280;32853;52.164;5.400;2023-10-13T13:25:06;99869.19;;;21.40;100.00
47104;BME280;32853;52.164;5.400;2023-10-13T13:27:34;100085.38;;;22.83;100.00
47104;BME280;32853;52.164;5.400;2023-10-13T13:29:59;100089.75;;;22.84;100.00
47104;BME280;32853;52.164;5.400;2023-10-13T13:32:26;100108.31;;;22.76;100.00
47104;BME280;32853;52.164;5.400;2023-10-13T13:34:54;100046.16;;;22.50;100.00
47104;BME280;32853;52.164;5.400;2023-10-13T13:37:24;100083.13;;;22.71;100.00
47104;BME280;32853;52.164;5.400;2023-10-13T13:39:52;99983.34;;;22.13;100.00
47104;BME280;32853;52.164;5.400;2023-10-13T13:42:21;99893.88;;;21.51;100.00
47104;BME280;32853;52.164;5.400;2023-10-13T13:44:47;99981.00;;;21.92;100.00
47104;BME280;32853;52.164;5.400;2023-10-13T13:47:16;99926.31;;;21.54;100.00
47104;BME280;32853;52.164;5.400;2023-10-13T13:49:42;99829.28;;;20.87;100.00
47104;BME280;32853;52.164;5.400;2023-10-13T13:52:19;100076.56;;;22.39;100.00
47104;BME280;32853;52.164;5.400;2023-10-13T13:54:59;99982.88;;;21.74;100.00
47104;BME280;32853;52.164;5.400;2023-10-13T13:57:32;99915.16;;;21.33;100.00
47104;BME280;32853;52.164;5.400;2023-10-13T13:59:57;99926.41;;;21.17;100.00
47104;BME280;32853;52.164;5.400;2023-10-13T14:02:35;100050.06;;;22.12;100.00
47104;BME280;32853;52.164;5.400;2023-10-13T14:05:00;100082.88;;;22.12;100.00
47104;BME280;32853;52.164;5.400;2023-10-13T14:07:32;100088.91;;;22.04;100.00
47104;BME280;32853;52.164;5.400;2023-10-13T14:10:00;100053.66;;;21.85;100.00
47104;BME280;32853;52.164;5.400;2023-10-13T14:12:44;100061.91;;;21.46;100.00
47104;BME280;32853;52.164;5.400;2023-10-13T14:15:15;100086.09;;;21.70;100.00
47104;BME280;32853;52.164;5.400;2023-10-13T14:17:54;99927.63;;;20.59;100.00
47104;BME280;32853;52.164;5.400;2023-10-13T14:20:24;100112.16;;;21.49;100.00
47104;BME280;32853;52.164;5.400;2023-10-13T14:22:52;100089.84;;;21.32;100.00
47104;BME280;32853;52.164;5.400;2023-10-13T14:25:31;99867.94;;;19.89;100.00
47104;BME280;32853;52.164;5.400;2023-10-13T14:28:17;100029.56;;;20.96;100.00
47104;BME280;32853;52.164;5.400;2023-10-13T14:30:44;100085.06;;;21.36;100.00
47104;BME280;32853;52.164;5.400;2023-10-13T14:33:10;100110.69;;;21.37;100.00
47104;BME280;32853;52.164;5.400;2023-10-13T14:35:36;99967.25;;;20.34;100.00
47104;BME280;32853;52.164;5.400;2023-10-13T14:38:12;100154.13;;;21.28;100.00
47104;BME280;32853;52.164;5.400;2023-10-13T14:40:37;100127.84;;;21.05;100.00
47104;BME280;32853;52.164;5.400;2023-10-13T14:43:03;100046.75;;;20.64;100.00
47104;BME280;32853;52.164;5.400;2023-10-13T14:45:35;99955.22;;;20.39;100.00
47104;BME280;32853;52.164;5.400;2023-10-13T14:48:01;99884.41;;;19.83;100.00
47104;BME280;32853;52.164;5.400;2023-10-13T14:50:26;100131.09;;;21.09;100.00
47104;BME280;32853;52.164;5.400;2023-10-13T14:52:57;100132.56;;;21.21;100.00
47104;BME280;32853;52.164;5.400;2023-10-13T14:55:32;100027.34;;;20.54;100.00
47104;BME280;32853;52.164;5.400;2023-10-13T14:58:04;100135.38;;;21.20;100.00
47104;BME280;32853;52.164;5.400;2023-10-13T15:00:32;100133.25;;;21.33;100.00
47104;BME280;32853;52.164;5.400;2023-10-13T15:03:01;100128.34;;;21.28;100.00
47104;BME280;32853;52.164;5.400;2023-10-13T15:05:27;99876.19;;;19.86;100.00
47104;BME280;32853;52.164;5.400;2023-10-13T15:08:01;99896.00;;;19.92;100.00
47104;BME280;32853;52.164;5.400;2023-10-13T15:10:33;100110.75;;;21.17;100.00
47104;BME280;32853;52.164;5.400;2023-10-13T15:13:01;100062.41;;;20.95;100.00
47104;BME280;32853;52.164;5.400;2023-10-13T15:15:39;100126.41;;;21.21;100.00
47104;BME280;32853;52.164;5.400;2023-10-13T15:18:05;100109.91;;;21.17;100.00
47104;BME280;32853;52.164;5.400;2023-10-13T15:20:31;100119.00;;;21.14;100.00
47104;BME280;32853;52.164;5.400;2023-10-13T15:22:57;100005.44;;;20.33;100.00
47104;BME280;32853;52.164;5.400;2023-10-13T15:25:28;100111.78;;;21.07;100.00
47104;BME280;32853;52.164;5.400;2023-10-13T15:27:59;99879.03;;;19.65;100.00
47104;BME280;32853;52.164;5.400;2023-10-13T15:30:28;100090.31;;;20.81;100.00
47104;BME280;32853;52.164;5.400;2023-10-13T15:33:09;99996.59;;;20.42;100.00
47104;BME280;32853;52.164;5.400;2023-10-13T15:35:38;99851.66;;;19.65;100.00
47104;BME280;32853;52.164;5.400;2023-10-13T15:38:04;99931.78;;;20.25;100.00
47104;BME280;32853;52.164;5.400;2023-10-13T15:41:08;100048.16;;;20.96;100.00
47104;BME280;32853;52.164;5.400;2023-10-13T15:43:34;100049.00;;;20.96;100.00
47104;BME280;32853;52.164;5.400;2023-10-13T15:45:59;99929.25;;;19.96;100.00
47104;BME280;32853;52.164;5.400;2023-10-13T15:48:25;100075.78;;;20.85;100.00
47104;BME280;32853;52.164;5.400;2023-10-13T15:50:53;99824.59;;;19.42;100.00
47104;BME280;32853;52.164;5.400;2023-10-13T15:53:21;100032.44;;;20.75;100.00
47104;BME280;32853;52.164;5.400;2023-10-13T15:55:52;99779.28;;;19.16;100.00